Terminal Aerodrome Forecast
Issued by NWS

Current Version | Previous Version | Graphics & Text | Print | Product List | Glossary On
Versions: 1 2 3 4 5 6 7 8 9 10 11 12 13 14 15 16 17 18 19 20 21 22 23 24 25 26 27 28 29 30 31 32 33 34 35 36 37 38 39 40 41
000
FTUS41 KRNK 270548
TAFLWB
TAF
KLWB 270548Z 2706/2806 00000KT P6SM -SHRA OVC040
      TEMPO 2706/2710 VRB10G18KT 2SM +SHRA SCT028 OVC035
     FM271200 25007KT P6SM -SHRA SCT045 BKN080
     FM272300 22012KT P6SM -SHRA VCTS BKN050CB
     FM280100 VRB12G25KT 3SM +TSRA OVC030CB
     FM280300 27010KT P6SM -SHRA BKN035=

USA.gov is the U.S. government's official web portal to all federal, state and local government web resources and services.